Time;durP1;ratioP1;P1;durP2;ratioP2;P2;SDS_P1;SDS_P2;PMS_P1;PMS_P2;Temp;Humidity;BMP_temperature;BMP_pressure;BME280_temperature;BME280_humidity;BME280_pressure;Samples;Min_cycle;Max_cycle;Signal;HPM_P1;HPM_P2
2021/08/11 00:00:08;;;;;;;4.25;3.10;;;16.30;99.90;;;;;;1997544;72;21466;-75
2021/08/11 00:02:34;;;;;;;5.90;2.92;;;16.30;99.90;;;;;;1997580;72;21409;-74
2021/08/11 00:05:00;;;;;;;7.47;3.33;;;16.30;99.90;;;;;;1997567;72;21045;-74
2021/08/11 00:07:26;;;;;;;3.10;2.50;;;16.30;99.90;;;;;;1997496;72;21041;-74
2021/08/11 00:09:52;;;;;;;3.20;2.45;;;16.30;99.90;;;;;;1997333;72;21038;-74
2021/08/11 00:12:18;;;;;;;7.35;2.52;;;16.30;99.90;;;;;;1997450;72;21018;-74
2021/08/11 00:14:45;;;;;;;4.08;2.90;;;16.30;99.90;;;;;;1997431;72;21037;-74
2021/08/11 00:17:11;;;;;;;7.20;3.42;;;16.30;99.90;;;;;;1997367;72;21042;-75
2021/08/11 00:19:38;;;;;;;6.87;3.00;;;16.20;99.90;;;;;;1997470;72;21038;-75
2021/08/11 00:22:04;;;;;;;3.70;2.70;;;16.20;99.90;;;;;;1997328;72;21023;-75
2021/08/11 00:24:30;;;;;;;3.00;2.70;;;16.20;99.90;;;;;;1997582;72;21042;-75
2021/08/11 00:26:56;;;;;;;3.52;2.90;;;16.20;99.90;;;;;;1997353;72;21038;-75
2021/08/11 00:29:23;;;;;;;5.95;3.05;;;16.20;99.90;;;;;;1997566;72;21041;-74
2021/08/11 00:31:49;;;;;;;3.40;2.77;;;16.20;99.90;;;;;;1997352;72;21023;-74
2021/08/11 00:34:17;;;;;;;3.62;2.77;;;16.20;99.90;;;;;;1997571;72;21018;-75
2021/08/11 00:36:43;;;;;;;4.47;2.50;;;16.10;99.90;;;;;;1997464;72;21049;-75
2021/08/11 00:39:09;;;;;;;4.10;2.62;;;16.10;99.90;;;;;;1995595;72;21107;-75
2021/08/11 00:41:35;;;;;;;4.15;3.17;;;16.10;99.90;;;;;;1996800;72;21062;-75
2021/08/11 00:44:01;;;;;;;4.53;2.75;;;16.10;99.90;;;;;;1993547;72;21022;-75
2021/08/11 00:46:27;;;;;;;4.72;3.00;;;16.00;99.90;;;;;;1994910;72;21339;-75
2021/08/11 00:48:54;;;;;;;3.85;2.92;;;16.00;99.90;;;;;;1997442;72;21017;-75
2021/08/11 00:51:20;;;;;;;4.67;2.90;;;15.90;99.90;;;;;;1997545;72;21190;-75
2021/08/11 00:53:46;;;;;;;3.35;2.55;;;15.90;99.90;;;;;;1997422;72;21014;-75
2021/08/11 00:56:12;;;;;;;6.35;2.72;;;15.80;99.90;;;;;;1997313;72;21103;-75
2021/08/11 00:58:38;;;;;;;3.20;2.58;;;15.80;99.90;;;;;;1997554;72;21073;-75
2021/08/11 01:01:04;;;;;;;5.28;2.80;;;15.80;99.90;;;;;;1997310;72;21462;-74
2021/08/11 01:03:31;;;;;;;5.03;3.15;;;15.80;99.90;;;;;;1997517;72;21095;-74
2021/08/11 01:05:57;;;;;;;6.20;2.70;;;15.70;99.90;;;;;;1997320;72;21106;-75
2021/08/11 01:08:23;;;;;;;4.55;3.02;;;15.70;99.90;;;;;;1997535;72;21100;-74
2021/08/11 01:10:49;;;;;;;3.60;2.70;;;15.70;99.90;;;;;;1997324;72;21038;-74
2021/08/11 01:13:15;;;;;;;4.87;3.00;;;15.60;99.90;;;;;;1997671;72;21034;-75
2021/08/11 01:15:47;;;;;;;18.45;3.40;;;15.60;99.90;;;;;;1997673;72;21010;-75
2021/08/11 01:18:13;;;;;;;4.03;3.00;;;15.70;99.90;;;;;;1997632;72;21014;-74
2021/08/11 01:20:39;;;;;;;3.75;2.80;;;15.60;99.90;;;;;;1997491;72;21014;-74
2021/08/11 01:23:05;;;;;;;4.12;2.70;;;15.60;99.90;;;;;;1997432;72;21481;-74
2021/08/11 01:25:32;;;;;;;4.70;2.65;;;15.70;99.90;;;;;;1997519;72;21433;-74
2021/08/11 01:27:58;;;;;;;4.83;2.83;;;15.70;99.90;;;;;;1997309;72;21474;-74
2021/08/11 01:30:25;;;;;;;5.70;2.80;;;15.70;99.90;;;;;;1997290;72;21527;-74
2021/08/11 01:32:51;;;;;;;5.17;2.85;;;15.70;99.90;;;;;;1997482;72;21098;-75
2021/08/11 01:35:17;;;;;;;5.08;3.20;;;15.70;99.90;;;;;;1997652;72;21038;-75
2021/08/11 01:37:44;;;;;;;4.22;2.55;;;15.70;99.90;;;;;;1997286;72;21035;-75
2021/08/11 01:40:10;;;;;;;4.15;3.08;;;15.80;99.90;;;;;;1997505;72;21033;-75
2021/08/11 01:42:41;;;;;;;3.52;2.77;;;15.80;99.90;;;;;;1997210;72;21037;-75
2021/08/11 01:45:04;;;;;;;5.70;3.20;;;15.70;99.90;;;;;;1995300;72;21136;-75
2021/08/11 01:47:30;;;;;;;7.60;3.50;;;15.70;99.90;;;;;;1997295;72;21007;-76
2021/08/11 01:49:56;;;;;;;3.87;2.87;;;15.80;99.90;;;;;;1997291;72;21038;-75
2021/08/11 01:52:22;;;;;;;8.43;3.45;;;15.80;99.90;;;;;;1997491;72;21041;-75
2021/08/11 01:54:48;;;;;;;4.70;3.30;;;15.70;99.90;;;;;;1997604;72;21138;-75
2021/08/11 01:57:14;;;;;;;3.17;2.58;;;15.70;99.90;;;;;;1997732;72;21015;-75
2021/08/11 01:59:40;;;;;;;10.53;3.35;;;15.80;99.90;;;;;;1997572;72;21038;-74
2021/08/11 02:02:06;;;;;;;4.35;3.20;;;15.80;99.90;;;;;;1997556;72;21037;-74
2021/08/11 02:04:33;;;;;;;4.22;2.98;;;15.80;99.90;;;;;;1997568;72;21038;-74
2021/08/11 02:06:59;;;;;;;3.42;3.08;;;15.80;99.90;;;;;;1997602;72;21130;-75
2021/08/11 02:09:25;;;;;;;4.37;2.98;;;15.80;99.90;;;;;;1997355;72;21034;-75
2021/08/11 02:11:51;;;;;;;6.12;2.85;;;15.80;99.90;;;;;;1997499;72;21445;-74
2021/08/11 02:14:17;;;;;;;6.20;3.02;;;15.80;99.90;;;;;;1997368;72;21523;-74
2021/08/11 02:16:43;;;;;;;6.58;3.22;;;15.80;99.90;;;;;;1997375;72;21450;-75
2021/08/11 02:19:09;;;;;;;4.10;3.15;;;15.70;99.90;;;;;;1997361;72;21041;-74
2021/08/11 02:21:35;;;;;;;8.05;3.00;;;15.60;99.90;;;;;;1997338;72;21034;-74
2021/08/11 02:24:02;;;;;;;3.90;2.65;;;15.60;99.90;;;;;;1997360;72;21039;-74
2021/08/11 02:26:28;;;;;;;12.93;3.20;;;15.50;99.90;;;;;;1994414;72;21155;-75
2021/08/11 02:28:54;;;;;;;3.83;3.00;;;15.40;99.90;;;;;;1992911;72;21018;-75
2021/08/11 02:31:20;;;;;;;7.40;3.75;;;15.40;99.90;;;;;;1995910;72;21103;-74
2021/08/11 02:33:46;;;;;;;4.55;2.92;;;15.30;99.90;;;;;;1997579;72;21119;-74
2021/08/11 02:36:12;;;;;;;3.70;3.10;;;15.30;99.90;;;;;;1997623;72;21042;-76
2021/08/11 02:38:38;;;;;;;6.72;3.70;;;15.30;99.90;;;;;;1997467;72;21089;-75
2021/08/11 02:41:05;;;;;;;5.17;3.33;;;15.30;99.90;;;;;;1997478;72;21107;-73
2021/08/11 02:43:32;;;;;;;10.75;3.12;;;15.20;99.90;;;;;;1997520;72;21041;-75
2021/08/11 02:45:58;;;;;;;3.92;2.80;;;15.20;99.90;;;;;;1997490;72;21334;-75
2021/08/11 02:48:24;;;;;;;5.08;2.92;;;15.20;99.90;;;;;;1997516;72;21010;-74
2021/08/11 02:50:50;;;;;;;3.85;3.27;;;15.20;99.90;;;;;;1997527;72;21099;-75
2021/08/11 02:53:16;;;;;;;7.40;3.45;;;15.20;99.90;;;;;;1997612;72;21103;-75
2021/08/11 02:55:42;;;;;;;6.42;3.27;;;15.20;99.90;;;;;;1997741;72;21099;-76
2021/08/11 02:58:09;;;;;;;3.47;3.10;;;15.10;99.90;;;;;;1997740;72;21062;-74
2021/08/11 03:00:35;;;;;;;7.53;3.42;;;15.10;99.90;;;;;;1997744;72;21030;-74
2021/08/11 03:03:01;;;;;;;4.17;3.20;;;15.10;99.90;;;;;;1997676;72;21142;-75
2021/08/11 03:05:27;;;;;;;4.35;3.40;;;15.10;99.90;;;;;;1997738;72;21095;-74
2021/08/11 03:07:53;;;;;;;3.50;3.20;;;15.10;99.90;;;;;;1997766;72;21014;-74
2021/08/11 03:10:20;;;;;;;7.08;3.17;;;15.10;99.90;;;;;;1997391;72;21046;-74
2021/08/11 03:12:46;;;;;;;4.70;3.33;;;15.10;99.90;;;;;;1997424;72;21041;-75
2021/08/11 03:15:12;;;;;;;5.22;3.12;;;15.00;99.90;;;;;;1997612;72;21128;-75
2021/08/11 03:17:39;;;;;;;4.83;3.47;;;15.10;99.90;;;;;;1997628;72;21088;-75
2021/08/11 03:20:05;;;;;;;6.15;4.05;;;15.10;99.90;;;;;;1997599;72;21478;-74
2021/08/11 03:22:32;;;;;;;4.55;3.30;;;15.10;99.90;;;;;;1997468;72;21433;-75
2021/08/11 03:24:58;;;;;;;8.10;3.12;;;15.10;99.90;;;;;;1997615;72;21159;-75
2021/08/11 03:27:24;;;;;;;2.87;2.60;;;15.20;99.90;;;;;;1997403;72;21033;-75
2021/08/11 03:29:50;;;;;;;6.12;3.20;;;15.10;99.90;;;;;;1997573;72;21037;-75
2021/08/11 03:32:16;;;;;;;8.30;3.37;;;15.20;99.90;;;;;;1997492;72;21092;-74
2021/08/11 03:34:42;;;;;;;4.58;2.60;;;15.10;99.90;;;;;;1997530;72;21024;-75
2021/08/11 03:37:13;;;;;;;4.08;3.27;;;15.20;99.90;;;;;;1997456;72;21155;-75
2021/08/11 03:39:36;;;;;;;5.45;3.35;;;15.20;99.90;;;;;;1996689;72;21050;-75
2021/08/11 03:42:02;;;;;;;5.92;3.27;;;15.20;99.90;;;;;;1997460;72;21045;-75
2021/08/11 03:44:28;;;;;;;4.97;3.50;;;15.20;99.90;;;;;;1997491;72;21139;-75
2021/08/11 03:46:54;;;;;;;3.70;3.40;;;15.20;99.90;;;;;;1997482;72;21115;-75
2021/08/11 03:49:21;;;;;;;9.38;3.55;;;15.10;99.90;;;;;;1997498;72;21025;-75
2021/08/11 03:51:47;;;;;;;3.50;3.05;;;15.20;99.90;;;;;;1997502;72;21100;-75
2021/08/11 03:54:13;;;;;;;6.05;3.58;;;15.10;99.90;;;;;;1997608;72;21082;-76
2021/08/11 03:56:39;;;;;;;5.83;3.42;;;15.10;99.90;;;;;;1997475;72;21122;-75
2021/08/11 03:59:05;;;;;;;25.32;3.35;;;15.10;99.90;;;;;;1997465;72;21057;-75
2021/08/11 04:01:31;;;;;;;6.17;3.20;;;15.00;99.90;;;;;;1997310;72;21440;-75
2021/08/11 04:03:57;;;;;;;4.90;3.30;;;15.10;99.90;;;;;;1997611;72;21414;-75
2021/08/11 04:06:24;;;;;;;8.03;3.77;;;15.20;99.90;;;;;;1997370;72;21480;-75
2021/08/11 04:08:50;;;;;;;5.83;3.60;;;15.10;99.90;;;;;;1997598;72;21497;-75
2021/08/11 04:11:16;;;;;;;8.83;3.87;;;15.10;99.90;;;;;;1997311;72;21481;-75
2021/08/11 04:13:42;;;;;;;7.05;3.42;;;15.10;99.90;;;;;;1997505;72;21406;-75
2021/08/11 04:16:08;;;;;;;5.80;3.70;;;15.20;99.90;;;;;;1997324;72;21457;-75
2021/08/11 04:18:34;;;;;;;7.40;3.37;;;15.20;99.90;;;;;;1997288;72;21005;-76
2021/08/11 04:21:00;;;;;;;10.70;3.72;;;15.30;99.90;;;;;;1997469;72;21042;-75
2021/08/11 04:23:27;;;;;;;3.37;2.98;;;15.30;99.90;;;;;;1997212;72;21014;-74
2021/08/11 04:25:53;;;;;;;8.28;3.52;;;15.30;99.90;;;;;;1997458;72;21054;-75
2021/08/11 04:28:19;;;;;;;5.97;3.10;;;15.30;99.90;;;;;;1997400;72;21038;-75
2021/08/11 04:30:46;;;;;;;4.62;3.25;;;15.40;99.90;;;;;;1997372;72;21566;-75
2021/08/11 04:33:12;;;;;;;5.28;3.72;;;15.50;99.90;;;;;;1999266;71;21022;-74
2021/08/11 04:35:38;;;;;;;5.28;2.98;;;15.40;99.90;;;;;;2001104;71;21077;-73
2021/08/11 04:38:04;;;;;;;5.22;2.87;;;15.40;99.90;;;;;;2000191;71;21025;-74
2021/08/11 04:40:30;;;;;;;4.90;3.40;;;15.40;99.90;;;;;;1997467;72;21050;-74
2021/08/11 04:42:56;;;;;;;4.83;2.90;;;15.40;99.90;;;;;;1997334;72;21118;-74
2021/08/11 04:45:22;;;;;;;4.33;3.05;;;15.40;99.90;;;;;;1997458;72;21434;-75
2021/08/11 04:47:49;;;;;;;3.95;3.47;;;15.40;99.90;;;;;;1997238;72;21560;-74
2021/08/11 04:50:15;;;;;;;6.17;3.62;;;15.40;99.90;;;;;;1997252;72;21387;-74
2021/08/11 04:52:41;;;;;;;9.38;3.27;;;15.30;99.90;;;;;;1997473;72;21454;-74
2021/08/11 04:55:07;;;;;;;4.45;3.52;;;15.30;99.90;;;;;;1997210;72;21473;-74
2021/08/11 04:57:33;;;;;;;4.65;3.17;;;15.40;99.90;;;;;;1997442;72;21100;-74
2021/08/11 04:59:59;;;;;;;4.78;2.77;;;15.40;99.90;;;;;;1997238;72;21142;-75
2021/08/11 05:02:25;;;;;;;8.33;3.50;;;15.50;99.90;;;;;;1997220;72;21022;-74
2021/08/11 05:04:51;;;;;;;8.75;3.25;;;15.50;99.90;;;;;;1997358;72;21033;-75
2021/08/11 05:07:18;;;;;;;5.12;4.00;;;15.50;99.90;;;;;;1997244;72;21051;-75
2021/08/11 05:09:44;;;;;;;4.30;3.20;;;15.50;99.90;;;;;;1997346;72;21111;-75
2021/08/11 05:12:10;;;;;;;6.50;3.05;;;15.60;99.90;;;;;;1997211;72;21022;-75
2021/08/11 05:14:36;;;;;;;4.42;3.20;;;15.80;99.90;;;;;;1996397;72;21111;-75
2021/08/11 05:17:02;;;;;;;8.63;3.47;;;15.80;99.90;;;;;;1993678;72;21041;-75
2021/08/11 05:19:28;;;;;;;4.92;3.08;;;15.90;99.90;;;;;;1994279;72;21533;-74
2021/08/11 05:21:54;;;;;;;6.87;3.33;;;15.90;99.90;;;;;;1996846;72;21478;-75
2021/08/11 05:24:21;;;;;;;7.67;3.12;;;15.80;99.90;;;;;;1997205;72;21477;-75
2021/08/11 05:26:47;;;;;;;6.45;3.50;;;15.80;99.90;;;;;;1997470;72;21095;-75
2021/08/11 05:29:13;;;;;;;13.95;3.10;;;15.90;99.90;;;;;;1997202;72;21033;-75
2021/08/11 05:31:39;;;;;;;6.97;3.45;;;15.90;99.90;;;;;;1997368;72;21085;-75
2021/08/11 05:34:05;;;;;;;6.47;3.80;;;15.90;99.90;;;;;;1997148;72;21030;-77
2021/08/11 05:36:31;;;;;;;4.72;3.20;;;15.90;99.90;;;;;;1997388;72;21095;-75
2021/08/11 05:38:57;;;;;;;3.72;3.10;;;16.10;99.90;;;;;;1997231;72;21033;-75
2021/08/11 05:41:23;;;;;;;5.60;3.00;;;16.10;99.90;;;;;;1997367;72;21010;-74
2021/08/11 05:43:50;;;;;;;5.12;3.30;;;16.10;99.90;;;;;;1997322;72;21018;-73
2021/08/11 05:46:16;;;;;;;6.33;3.70;;;16.20;99.90;;;;;;1997297;72;21041;-75
2021/08/11 05:48:46;;;;;;;10.50;4.15;;;16.20;99.90;;;;;;1997154;72;21112;-76
2021/08/11 05:51:10;;;;;;;16.95;6.45;;;16.20;99.90;;;;;;1995037;72;21108;-76
2021/08/11 05:53:36;;;;;;;5.30;3.20;;;16.10;99.90;;;;;;1997616;72;21096;-75
2021/08/11 05:56:02;;;;;;;8.48;3.33;;;16.30;99.90;;;;;;1997500;72;21473;-75
2021/08/11 05:58:28;;;;;;;5.10;3.00;;;16.40;99.90;;;;;;1997262;72;21053;-75
2021/08/11 06:00:59;;;;;;;5.47;3.12;;;16.60;99.90;;;;;;1997290;72;21015;-75
2021/08/11 06:03:22;;;;;;;11.78;3.60;;;16.70;99.90;;;;;;1994810;72;21049;-75
2021/08/11 06:05:48;;;;;;;12.80;3.50;;;16.80;99.90;;;;;;1997563;72;21170;-86
2021/08/11 06:08:15;;;;;;;4.70;3.15;;;17.00;99.90;;;;;;1997596;72;21006;-74
2021/08/11 06:10:41;;;;;;;6.60;3.65;;;17.00;99.90;;;;;;1997562;72;21099;-74
2021/08/11 06:13:07;;;;;;;5.58;3.37;;;17.00;99.90;;;;;;1997550;72;21099;-73
2021/08/11 06:15:33;;;;;;;13.15;3.22;;;17.10;99.90;;;;;;1997556;72;21037;-74
2021/08/11 06:17:59;;;;;;;5.87;3.67;;;17.20;99.90;;;;;;1997613;72;21062;-74
2021/08/11 06:20:25;;;;;;;4.03;3.40;;;17.30;99.90;;;;;;1997589;72;21107;-75
2021/08/11 06:22:51;;;;;;;5.65;3.30;;;17.50;99.90;;;;;;1997347;72;21034;-75
2021/08/11 06:25:17;;;;;;;7.20;3.42;;;17.50;99.90;;;;;;1997552;72;21107;-75
2021/08/11 06:27:44;;;;;;;12.25;4.12;;;17.70;99.90;;;;;;1997401;72;21035;-75
2021/08/11 06:30:10;;;;;;;5.22;3.47;;;17.80;99.90;;;;;;1997567;72;21033;-76
2021/08/11 06:32:36;;;;;;;5.95;3.33;;;18.20;99.90;;;;;;1997323;72;21115;-73
2021/08/11 06:35:02;;;;;;;4.25;2.90;;;18.30;99.90;;;;;;1997476;72;21050;-76
2021/08/11 06:37:28;;;;;;;8.18;3.33;;;18.40;99.90;;;;;;1997249;72;21011;-76
2021/08/11 06:42:38;;;;;;;6.12;3.33;;;18.60;99.90;;;;;;1997482;72;21001;-76
2021/08/11 06:45:04;;;;;;;5.72;3.55;;;18.70;99.90;;;;;;1997323;72;21106;-76
2021/08/11 06:47:31;;;;;;;9.40;3.30;;;18.60;99.90;;;;;;1997516;72;21034;-76
2021/08/11 06:49:57;;;;;;;5.05;2.70;;;18.80;99.90;;;;;;1997226;72;21022;-76
2021/08/11 06:52:23;;;;;;;5.53;2.90;;;19.00;99.90;;;;;;1997492;72;21107;-76
2021/08/11 06:54:49;;;;;;;5.78;3.20;;;19.40;99.90;;;;;;1997226;72;21077;-77
2021/08/11 06:57:15;;;;;;;5.12;2.98;;;19.50;99.90;;;;;;1997501;72;21096;-77
2021/08/11 06:59:43;;;;;;;20.40;3.27;;;19.70;99.90;;;;;;1997341;72;21027;-79
2021/08/11 07:02:09;;;;;;;7.97;2.98;;;20.00;99.90;;;;;;1997450;72;21524;-79
2021/08/11 07:04:35;;;;;;;4.75;3.17;;;20.10;99.90;;;;;;1997344;72;21555;-79
2021/08/11 07:07:02;;;;;;;3.42;2.85;;;20.20;99.90;;;;;;1997315;72;21367;-80
2021/08/11 07:09:28;;;;;;;4.60;3.12;;;20.40;99.90;;;;;;1997594;72;21438;-78
2021/08/11 07:11:54;;;;;;;5.30;3.10;;;20.30;99.90;;;;;;1997305;72;21458;-79
2021/08/11 07:14:20;;;;;;;6.95;3.35;;;20.00;99.90;;;;;;1997425;72;21509;-79
2021/08/11 07:16:46;;;;;;;3.83;2.80;;;20.10;99.90;;;;;;1997359;72;21430;-79
2021/08/11 07:19:12;;;;;;;5.15;3.37;;;20.00;99.90;;;;;;1997470;72;21029;-78
2021/08/11 07:21:38;;;;;;;4.05;3.12;;;20.20;99.90;;;;;;1997522;72;21034;-78
2021/08/11 07:24:05;;;;;;;5.97;3.50;;;20.50;99.90;;;;;;1997596;72;21037;-78
2021/08/11 07:26:31;;;;;;;6.33;2.92;;;20.70;99.90;;;;;;1997284;72;21015;-78
2021/08/11 07:28:57;;;;;;;4.25;2.90;;;20.30;99.90;;;;;;1997418;72;21033;-77
2021/08/11 07:31:23;;;;;;;8.40;2.87;;;20.40;99.90;;;;;;1997386;72;21038;-77
2021/08/11 07:33:49;;;;;;;6.67;2.72;;;21.10;99.90;;;;;;1997428;72;21068;-79
2021/08/11 07:36:15;;;;;;;4.70;2.85;;;21.60;99.90;;;;;;1997552;72;21441;-79
2021/08/11 07:38:41;;;;;;;4.12;2.55;;;22.40;99.90;;;;;;1997307;72;21395;-77
2021/08/11 07:41:08;;;;;;;5.55;1.87;;;22.30;99.90;;;;;;1997466;72;21527;-77
2021/08/11 07:43:34;;;;;;;5.15;2.92;;;22.70;99.90;;;;;;1997268;72;21472;-77
2021/08/11 07:46:00;;;;;;;6.45;2.50;;;23.20;99.90;;;;;;1997432;72;21536;-72
2021/08/11 07:48:26;;;;;;;3.77;2.40;;;23.10;99.90;;;;;;1997340;72;21007;-72
2021/08/11 07:50:52;;;;;;;3.50;2.40;;;22.90;99.90;;;;;;1997441;72;21026;-72
2021/08/11 07:53:18;;;;;;;3.90;2.35;;;23.80;99.90;;;;;;1996183;72;21188;-72
2021/08/11 07:55:44;;;;;;;3.52;1.80;;;23.70;99.90;;;;;;1997291;72;21009;-74
2021/08/11 07:58:10;;;;;;;3.37;2.10;;;23.50;99.90;;;;;;1997431;72;21007;-74
2021/08/11 08:00:36;;;;;;;4.40;2.22;;;24.20;99.90;;;;;;1997371;72;21091;-74
2021/08/11 08:03:03;;;;;;;6.50;2.55;;;24.40;99.90;;;;;;1997423;72;21039;-74
2021/08/11 08:05:29;;;;;;;5.95;2.47;;;24.90;99.90;;;;;;1996122;72;21046;-75
2021/08/11 08:07:55;;;;;;;6.47;2.60;;;25.00;99.90;;;;;;1997373;72;21010;-75
2021/08/11 08:10:21;;;;;;;5.28;2.20;;;24.90;99.90;;;;;;1995891;72;21054;-74
2021/08/11 08:12:48;;;;;;;9.60;2.58;;;25.20;99.90;;;;;;1992712;72;21037;-74
2021/08/11 08:15:14;;;;;;;2.85;2.35;;;24.70;99.90;;;;;;1995738;72;21123;-74
2021/08/11 08:17:40;;;;;;;3.92;2.25;;;24.50;99.90;;;;;;1997601;72;21093;-74
2021/08/11 08:20:07;;;;;;;6.37;2.20;;;24.50;99.90;;;;;;1997492;72;21033;-74
2021/08/11 08:22:33;;;;;;;10.85;2.33;;;25.00;99.90;;;;;;1997289;72;21540;-74
2021/08/11 08:24:59;;;;;;;3.47;2.17;;;24.80;99.90;;;;;;1997469;72;21481;-74
2021/08/11 08:27:25;;;;;;;5.20;2.52;;;25.00;99.90;;;;;;1997270;72;21489;-76
2021/08/11 08:29:51;;;;;;;4.83;2.65;;;24.80;99.90;;;;;;1997300;72;21045;-74
2021/08/11 08:32:18;;;;;;;6.67;2.75;;;25.10;99.90;;;;;;1997582;72;21038;-74
2021/08/11 08:34:44;;;;;;;3.02;2.25;;;25.20;99.90;;;;;;1997333;72;21053;-74
2021/08/11 08:37:10;;;;;;;3.65;2.10;;;25.10;99.90;;;;;;1997323;72;21090;-74
2021/08/11 08:39:36;;;;;;;3.30;2.25;;;26.10;99.90;;;;;;1997328;72;21042;-74
2021/08/11 08:42:02;;;;;;;6.58;2.10;;;26.00;99.90;;;;;;1997378;72;21009;-74
2021/08/11 08:44:28;;;;;;;6.83;2.60;;;26.00;99.90;;;;;;1997318;72;21038;-74
2021/08/11 08:46:54;;;;;;;6.17;2.27;;;26.10;99.90;;;;;;1997420;72;21033;-74
2021/08/11 08:49:21;;;;;;;11.78;2.60;;;26.20;99.90;;;;;;1997327;72;21081;-74
2021/08/11 08:51:47;;;;;;;5.25;2.35;;;26.00;99.90;;;;;;1997278;72;21022;-75
2021/08/11 08:54:13;;;;;;;4.55;2.55;;;26.00;99.90;;;;;;1997305;72;21103;-74
2021/08/11 08:56:39;;;;;;;6.53;2.30;;;26.10;99.90;;;;;;1997289;72;21111;-73
2021/08/11 08:59:06;;;;;;;8.18;2.40;;;26.30;99.90;;;;;;1997343;72;21045;-73
2021/08/11 09:01:32;;;;;;;3.77;2.20;;;26.40;99.90;;;;;;1997284;72;21042;-74
2021/08/11 09:03:58;;;;;;;4.28;1.95;;;26.70;99.90;;;;;;1997411;72;21018;-75
2021/08/11 09:06:24;;;;;;;2.80;2.02;;;27.50;99.90;;;;;;1997300;72;21038;-74
2021/08/11 09:08:50;;;;;;;4.42;2.35;;;27.10;99.90;;;;;;1997390;72;21073;-75
2021/08/11 09:11:16;;;;;;;4.35;2.15;;;26.90;99.90;;;;;;1997314;72;21087;-75
2021/08/11 09:13:43;;;;;;;7.80;2.22;;;26.90;99.90;;;;;;1997310;72;21018;-74
2021/08/11 09:16:11;;;;;;;14.35;2.20;;;27.50;99.90;;;;;;1997364;72;21033;-75
2021/08/11 09:18:36;;;;;;;3.62;2.50;;;27.80;99.90;;;;;;1996988;72;21442;-75
2021/08/11 09:21:03;;;;;;;6.50;2.65;;;27.70;99.90;;;;;;1997283;72;21020;-75
2021/08/11 09:23:29;;;;;;;3.12;2.30;;;27.90;99.90;;;;;;1997426;72;21026;-75
2021/08/11 09:25:55;;;;;;;4.17;2.10;;;27.30;99.90;;;;;;1998326;72;21034;-76
2021/08/11 09:28:22;;;;;;;3.90;2.40;;;27.80;99.90;;;;;;2001201;71;21026;-74
2021/08/11 09:30:48;;;;;;;2.62;2.17;;;27.90;99.90;;;;;;2000502;72;21398;-76
2021/08/11 09:33:14;;;;;;;5.45;2.40;;;27.80;99.90;;;;;;1997386;72;21433;-75
2021/08/11 09:35:40;;;;;;;3.58;1.95;;;27.90;99.90;;;;;;1997365;72;21493;-75
2021/08/11 09:38:07;;;;;;;5.97;2.42;;;28.50;99.90;;;;;;1997324;72;21493;-75
2021/08/11 09:40:33;;;;;;;2.67;2.08;;;28.40;99.90;;;;;;1997423;72;21099;-75
2021/08/11 09:42:59;;;;;;;6.60;2.40;;;28.90;99.90;;;;;;1997603;72;21127;-75
2021/08/11 09:45:26;;;;;;;6.58;2.12;;;28.50;99.90;;;;;;1997355;72;21011;-75
2021/08/11 09:47:53;;;;;;;5.03;1.90;;;28.80;99.90;;;;;;1997519;72;21041;-75
2021/08/11 09:50:19;;;;;;;5.25;2.27;;;28.80;99.90;;;;;;1997322;72;21103;-74
2021/08/11 09:52:46;;;;;;;3.65;2.20;;;29.00;99.90;;;;;;1997541;72;21041;-75
2021/08/11 09:55:12;;;;;;;5.55;2.37;;;29.50;99.90;;;;;;1997325;72;21119;-75
2021/08/11 09:57:39;;;;;;;3.47;2.08;;;29.80;99.90;;;;;;1996907;72;21030;-76
2021/08/11 10:00:05;;;;;;;3.47;2.20;;;30.10;99.90;;;;;;1997477;72;21028;-76
2021/08/11 10:02:31;;;;;;;5.33;2.05;;;29.30;99.90;;;;;;1993553;72;21104;-76
2021/08/11 10:04:57;;;;;;;3.05;2.10;;;28.70;99.90;;;;;;1993611;72;21131;-75
2021/08/11 10:07:23;;;;;;;3.30;2.02;;;29.10;99.90;;;;;;1995617;72;21103;-75
2021/08/11 10:09:49;;;;;;;4.00;1.85;;;29.00;99.90;;;;;;1997895;72;21107;-74
2021/08/11 10:12:15;;;;;;;2.35;1.82;;;28.80;99.90;;;;;;1997443;72;21033;-75
2021/08/11 10:14:41;;;;;;;4.72;2.10;;;28.00;99.90;;;;;;1994254;72;21084;-75
2021/08/11 10:17:07;;;;;;;2.12;1.80;;;27.80;99.90;;;;;;1994966;72;21007;-76
2021/08/11 10:19:34;;;;;;;3.22;2.00;;;28.20;99.90;;;;;;1997239;72;21033;-75
2021/08/11 10:22:00;;;;;;;8.73;2.05;;;28.60;99.90;;;;;;1997460;72;21033;-76
2021/08/11 10:24:26;;;;;;;5.53;2.15;;;28.80;99.90;;;;;;1997278;72;21045;-76
2021/08/11 10:26:52;;;;;;;2.92;2.00;;;29.40;99.90;;;;;;1997503;72;21109;-76
2021/08/11 10:29:18;;;;;;;3.17;1.98;;;30.40;99.90;;;;;;1997261;72;21010;-75
2021/08/11 10:31:44;;;;;;;2.25;1.80;;;30.20;99.90;;;;;;1997442;72;21011;-76
2021/08/11 10:34:10;;;;;;;5.00;2.10;;;30.30;99.90;;;;;;1997552;72;21069;-78
2021/08/11 10:36:39;;;;;;;4.58;1.98;;;29.30;99.90;;;;;;1997571;72;21103;-76
2021/08/11 10:39:04;;;;;;;9.23;2.20;;;28.90;99.90;;;;;;1997145;72;21037;-76
2021/08/11 10:41:31;;;;;;;6.67;2.17;;;29.50;99.90;;;;;;1997212;72;21046;-76
2021/08/11 10:43:57;;;;;;;2.87;1.80;;;29.40;99.90;;;;;;1997490;72;21025;-72
2021/08/11 10:46:23;;;;;;;4.03;1.95;;;29.40;99.90;;;;;;1997313;72;21034;-74
2021/08/11 10:48:49;;;;;;;4.00;2.00;;;29.00;99.90;;;;;;1997549;72;21107;-75
2021/08/11 10:51:15;;;;;;;3.90;2.42;;;29.70;99.90;;;;;;1997338;72;21011;-74
2021/08/11 10:53:41;;;;;;;4.10;2.12;;;28.80;99.90;;;;;;1997529;72;21084;-74
2021/08/11 10:56:07;;;;;;;4.47;2.60;;;29.10;99.90;;;;;;1997594;72;21099;-75
2021/08/11 10:58:33;;;;;;;5.10;2.33;;;28.60;99.90;;;;;;1997627;72;21110;-75
2021/08/11 11:00:59;;;;;;;4.95;2.40;;;28.10;99.90;;;;;;1997618;72;21084;-75
2021/08/11 11:03:26;;;;;;;4.55;1.98;;;27.80;99.90;;;;;;1997699;72;21033;-75
2021/08/11 11:05:52;;;;;;;4.75;2.00;;;27.90;99.90;;;;;;1997723;72;21063;-73
2021/08/11 11:08:23;;;;;;;6.72;1.98;;;28.10;99.90;;;;;;1997620;72;21033;-75
2021/08/11 11:10:46;;;;;;;3.55;1.98;;;28.00;99.90;;;;;;1996309;72;21014;-76
2021/08/11 11:13:12;;;;;;;4.10;1.70;;;27.90;99.90;;;;;;1997500;72;21006;-76
2021/08/11 11:15:38;;;;;;;3.95;2.22;;;27.50;99.90;;;;;;1997343;72;21124;-76
2021/08/11 11:18:05;;;;;;;4.72;2.08;;;27.40;99.90;;;;;;1997650;72;21107;-76
2021/08/11 11:20:31;;;;;;;4.00;1.85;;;27.40;99.90;;;;;;1997326;72;21092;-76
2021/08/11 11:22:57;;;;;;;2.08;1.87;;;27.40;99.90;;;;;;1997516;72;21014;-76
2021/08/11 11:25:23;;;;;;;2.40;1.80;;;27.30;99.90;;;;;;1997311;72;21018;-76
2021/08/11 11:27:54;;;;;;;3.52;2.15;;;26.90;99.90;;;;;;1997396;72;21041;-76
2021/08/11 11:30:20;;;;;;;4.60;1.82;;;26.70;99.90;;;;;;1997356;72;21053;-77
2021/08/11 11:32:46;;;;;;;7.28;2.22;;;26.60;99.90;;;;;;1997514;72;21014;-76
2021/08/11 11:35:12;;;;;;;2.85;2.08;;;26.90;99.90;;;;;;1997427;72;21022;-76
2021/08/11 11:37:38;;;;;;;2.70;2.05;;;27.30;99.90;;;;;;1997481;72;21050;-76
2021/08/11 11:40:05;;;;;;;5.53;2.40;;;27.50;99.90;;;;;;1997411;72;21495;-76
2021/08/11 11:42:31;;;;;;;7.92;2.50;;;27.80;99.90;;;;;;1997492;72;21065;-76
2021/08/11 11:44:57;;;;;;;4.75;2.77;;;27.20;99.90;;;;;;1997302;72;21033;-76
2021/08/11 11:47:24;;;;;;;3.15;2.37;;;27.80;99.90;;;;;;1997604;72;21046;-77
2021/08/11 11:49:50;;;;;;;2.92;2.35;;;28.60;99.90;;;;;;1997299;72;21050;-76
2021/08/11 11:52:16;;;;;;;5.87;2.22;;;29.10;99.90;;;;;;1997613;72;21046;-76
2021/08/11 11:54:42;;;;;;;3.80;2.37;;;29.40;99.90;;;;;;1993675;72;21049;-77
2021/08/11 11:57:08;;;;;;;3.33;2.15;;;29.50;99.90;;;;;;1993626;72;21041;-76
2021/08/11 11:59:34;;;;;;;4.25;2.22;;;29.40;99.90;;;;;;1992947;72;21462;-77
2021/08/11 12:02:00;;;;;;;5.03;2.45;;;29.40;99.90;;;;;;1995794;72;21426;-77
2021/08/11 12:04:27;;;;;;;2.72;2.20;;;30.00;99.90;;;;;;1996983;72;21470;-77
2021/08/11 12:06:53;;;;;;;2.95;1.90;;;30.80;99.90;;;;;;1994548;72;21469;-78
2021/08/11 12:09:19;;;;;;;4.53;1.90;;;31.50;99.90;;;;;;1996931;72;21481;-77
2021/08/11 12:11:45;;;;;;;4.37;1.85;;;31.00;99.90;;;;;;1994224;72;21038;-77
2021/08/11 12:14:12;;;;;;;4.22;2.50;;;31.50;99.90;;;;;;1992902;72;21073;-77
2021/08/11 12:16:38;;;;;;;4.12;2.35;;;32.10;99.90;;;;;;1996337;72;21022;-77
2021/08/11 12:19:04;;;;;;;5.90;2.30;;;32.00;99.90;;;;;;1993905;72;21559;-76
2021/08/11 12:21:30;;;;;;;5.00;2.27;;;31.80;99.90;;;;;;1993439;72;21480;-77
2021/08/11 12:23:56;;;;;;;5.85;2.30;;;32.00;99.90;;;;;;1996628;72;21446;-76
2021/08/11 12:26:22;;;;;;;6.15;2.22;;;31.30;99.90;;;;;;1997518;72;21471;-77
2021/08/11 12:28:49;;;;;;;2.00;1.85;;;30.20;99.90;;;;;;1997307;72;21554;-76
2021/08/11 12:31:16;;;;;;;2.85;2.33;;;29.80;99.90;;;;;;1997514;72;21045;-77
2021/08/11 12:33:42;;;;;;;2.77;2.02;;;30.00;99.90;;;;;;1997294;72;21453;-77
2021/08/11 12:36:09;;;;;;;5.95;2.10;;;30.40;99.90;;;;;;1997523;72;21034;-77
2021/08/11 12:38:35;;;;;;;7.42;2.50;;;31.10;99.90;;;;;;1997308;72;21177;-76
2021/08/11 12:41:01;;;;;;;4.75;2.27;;;31.70;99.90;;;;;;1997490;72;21068;-77